createdAt,value
2023-01-26T00:01:18.817Z,42.50
2023-01-26T00:03:46.722Z,41.78
2023-01-26T00:06:16.619Z,42.05
2023-01-26T00:08:46.160Z,42.20
2023-01-26T00:11:16.083Z,43.28
2023-01-26T00:13:43.623Z,44.50
2023-01-26T00:16:12.802Z,42.05
2023-01-26T00:18:40.845Z,45.10
2023-01-26T00:21:09.148Z,40.05
2023-01-26T00:23:36.332Z,41.90
2023-01-26T00:26:06.590Z,40.92
2023-01-26T00:28:33.570Z,41.13
2023-01-26T00:31:11.613Z,40.67
2023-01-26T00:33:38.764Z,39.22
2023-01-26T00:36:06.558Z,38.40
2023-01-26T00:38:33.536Z,36.97
2023-01-26T00:41:01.615Z,37.10
2023-01-26T00:43:28.559Z,37.58
2023-01-26T00:45:55.459Z,39.92
2023-01-26T00:48:24.563Z,35.90
2023-01-26T00:50:52.488Z,37.20
2023-01-26T00:53:19.623Z,36.22
2023-01-26T00:55:46.506Z,36.40
2023-01-26T00:58:13.736Z,37.13
2023-01-26T01:00:40.667Z,35.40
2023-01-26T01:03:07.789Z,36.78
2023-01-26T01:05:34.995Z,36.97
2023-01-26T01:08:02.297Z,36.40
2023-01-26T01:10:30.375Z,35.53
2023-01-26T01:12:57.247Z,35.00
2023-01-26T01:15:25.079Z,35.30
2023-01-26T01:17:52.289Z,36.45
2023-01-26T01:20:19.458Z,38.15
2023-01-26T01:22:46.896Z,37.70
2023-01-26T01:25:14.471Z,36.40
2023-01-26T01:27:41.436Z,36.38
2023-01-26T01:30:10.503Z,36.88
2023-01-26T01:32:39.790Z,36.10
2023-01-26T01:35:07.693Z,36.05
2023-01-26T01:37:36.739Z,33.75
2023-01-26T01:40:03.781Z,34.03
2023-01-26T01:42:30.650Z,33.72
2023-01-26T01:45:22.677Z,31.13
2023-01-26T01:47:49.968Z,31.25
2023-01-26T01:50:18.319Z,32.38
2023-01-26T01:52:45.910Z,30.05
2023-01-26T01:55:16.630Z,30.95
2023-01-26T01:57:53.712Z,30.38
2023-01-26T02:00:23.909Z,29.38
2023-01-26T02:03:19.307Z,29.65
2023-01-26T02:05:56.126Z,29.20
2023-01-26T02:08:30.900Z,30.73
2023-01-26T02:11:02.539Z,30.85
2023-01-26T02:13:31.710Z,29.25
2023-01-26T02:15:59.872Z,30.00
2023-01-26T02:18:27.842Z,30.63
2023-01-26T02:21:00.649Z,30.63
2023-01-26T02:23:30.672Z,30.05
2023-01-26T02:26:16.159Z,30.55
2023-01-26T02:28:44.615Z,29.60
2023-01-26T02:31:12.589Z,29.50
2023-01-26T02:33:40.451Z,30.00
2023-01-26T02:36:08.482Z,31.00
2023-01-26T02:38:45.193Z,30.70
2023-01-26T02:41:38.770Z,31.17
2023-01-26T02:44:08.495Z,31.75
2023-01-26T02:46:35.461Z,30.90
2023-01-26T02:49:21.667Z,31.73
2023-01-26T02:51:48.648Z,32.65
2023-01-26T02:54:35.763Z,31.52
2023-01-26T02:57:03.613Z,30.42
2023-01-26T02:59:30.533Z,30.85
2023-01-26T03:01:58.333Z,30.25
2023-01-26T03:04:25.674Z,31.42
2023-01-26T03:06:52.663Z,30.27
2023-01-26T03:09:19.571Z,30.88
2023-01-26T03:11:47.384Z,30.80
2023-01-26T03:14:16.651Z,31.60
2023-01-26T03:16:43.769Z,32.65
2023-01-26T03:19:32.123Z,32.22
2023-01-26T03:22:18.451Z,31.08
2023-01-26T03:25:04.547Z,31.48
2023-01-26T03:27:40.473Z,30.38
2023-01-26T03:30:08.183Z,32.08
2023-01-26T03:32:35.814Z,31.17
2023-01-26T03:35:07.796Z,29.92
2023-01-26T03:37:36.949Z,27.48
2023-01-26T03:40:31.485Z,30.13
2023-01-26T03:43:17.167Z,29.05
2023-01-26T03:46:02.510Z,28.40
2023-01-26T03:48:50.419Z,30.85
2023-01-26T03:51:35.756Z,26.83
2023-01-26T03:54:21.207Z,27.75
2023-01-26T03:56:48.895Z,25.15
2023-01-26T03:59:21.040Z,25.63
2023-01-26T04:02:07.014Z,27.52
2023-01-26T04:04:53.993Z,23.70
2023-01-26T04:07:43.630Z,24.50
2023-01-26T04:10:11.586Z,25.98
2023-01-26T04:12:38.744Z,25.40
2023-01-26T04:15:35.926Z,23.13
2023-01-26T04:18:27.833Z,23.55
2023-01-26T04:21:14.434Z,24.27
2023-01-26T04:23:43.686Z,24.00
2023-01-26T04:26:10.571Z,25.40
2023-01-26T04:28:38.353Z,24.92
2023-01-26T04:31:05.943Z,23.80
2023-01-26T04:33:35.835Z,24.10
2023-01-26T04:36:04.941Z,24.80
2023-01-26T04:38:32.778Z,26.20
2023-01-26T04:41:00.088Z,24.90
2023-01-26T04:43:28.733Z,25.65
2023-01-26T04:46:00.097Z,25.45
2023-01-26T04:48:28.823Z,25.70
2023-01-26T04:51:17.850Z,26.15
2023-01-26T04:53:44.795Z,25.58
2023-01-26T04:56:28.698Z,26.65
2023-01-26T04:58:58.143Z,25.67
2023-01-26T05:01:25.936Z,25.52
2023-01-26T05:03:53.104Z,27.00
2023-01-26T05:06:20.381Z,26.92
2023-01-26T05:08:49.102Z,27.67
2023-01-26T05:11:16.071Z,28.48
2023-01-26T05:14:01.508Z,27.02
2023-01-26T05:16:55.916Z,27.42
2023-01-26T05:19:37.632Z,26.90
2023-01-26T05:22:19.675Z,27.42
2023-01-26T05:25:05.671Z,27.30
2023-01-26T05:27:52.805Z,28.63
2023-01-26T05:30:20.213Z,28.45
2023-01-26T05:32:47.297Z,26.75
2023-01-26T05:35:15.361Z,28.13
2023-01-26T05:37:42.616Z,27.83
2023-01-26T05:40:11.300Z,26.35
2023-01-26T05:42:38.761Z,26.70
2023-01-26T05:45:15.223Z,27.98
2023-01-26T05:47:44.728Z,27.40
2023-01-26T05:50:13.057Z,27.88
2023-01-26T05:52:43.332Z,27.48
2023-01-26T05:55:10.672Z,27.02
2023-01-26T05:57:38.328Z,27.75
2023-01-26T06:00:09.886Z,26.45
2023-01-26T06:02:49.046Z,27.55
2023-01-26T06:05:17.357Z,28.52
2023-01-26T06:07:45.515Z,28.40
2023-01-26T06:10:19.131Z,28.38
2023-01-26T06:12:57.840Z,26.92
2023-01-26T06:15:42.250Z,29.08
2023-01-26T06:18:09.397Z,28.55
2023-01-26T06:20:36.739Z,27.23
2023-01-26T06:23:07.168Z,27.65
2023-01-26T06:25:35.315Z,29.95
2023-01-26T06:28:03.167Z,30.73
2023-01-26T06:30:31.228Z,29.85
2023-01-26T06:33:02.265Z,28.08
2023-01-26T06:35:30.309Z,28.17
2023-01-26T06:38:01.747Z,28.02
2023-01-26T06:40:28.658Z,28.38
2023-01-26T06:42:55.630Z,27.75
2023-01-26T06:45:22.825Z,27.38
2023-01-26T06:47:51.626Z,31.38
2023-01-26T06:50:22.626Z,27.35
2023-01-26T06:52:56.038Z,27.75
2023-01-26T06:55:49.383Z,27.55
2023-01-26T06:58:34.634Z,27.33
2023-01-26T07:01:41.385Z,28.27
2023-01-26T07:04:08.306Z,28.25
2023-01-26T07:06:35.307Z,26.70
2023-01-26T07:09:02.303Z,28.42
2023-01-26T07:11:30.676Z,28.95
2023-01-26T07:13:57.671Z,27.92
2023-01-26T07:16:24.616Z,28.98
2023-01-26T07:18:53.025Z,28.90
2023-01-26T07:21:19.956Z,29.48
2023-01-26T07:23:47.231Z,29.70
2023-01-26T07:26:14.617Z,28.38
2023-01-26T07:28:41.546Z,28.02
2023-01-26T07:31:10.446Z,28.92
2023-01-26T07:33:37.538Z,30.13
2023-01-26T07:36:04.651Z,28.20
2023-01-26T07:38:33.326Z,29.70
2023-01-26T07:41:05.495Z,31.85
2023-01-26T07:43:34.372Z,27.55
2023-01-26T07:46:01.397Z,25.98
2023-01-26T07:48:29.920Z,27.27
2023-01-26T07:51:00.970Z,29.45
2023-01-26T07:53:29.433Z,27.58
2023-01-26T07:56:12.749Z,30.50
2023-01-26T07:58:40.257Z,27.90
2023-01-26T08:01:09.979Z,29.83
2023-01-26T08:03:37.612Z,32.40
2023-01-26T08:06:05.284Z,28.52
2023-01-26T08:08:32.363Z,30.25
2023-01-26T08:11:00.792Z,31.73
2023-01-26T08:13:35.302Z,31.70
2023-01-26T08:16:13.790Z,30.75
2023-01-26T08:18:42.355Z,36.25
2023-01-26T08:21:10.310Z,28.30
2023-01-26T08:23:37.439Z,31.75
2023-01-26T08:26:07.231Z,28.38
2023-01-26T08:28:35.186Z,33.50
2023-01-26T08:31:07.527Z,36.58
2023-01-26T08:33:35.045Z,30.45
2023-01-26T08:36:03.680Z,33.78
2023-01-26T08:38:31.962Z,30.83
2023-01-26T08:40:59.953Z,38.58
2023-01-26T08:43:27.345Z,34.38
2023-01-26T08:45:54.294Z,32.00
2023-01-26T08:48:21.561Z,39.42
2023-01-26T08:50:48.415Z,32.15
2023-01-26T08:53:15.342Z,29.30
2023-01-26T08:55:42.230Z,31.45
2023-01-26T08:58:09.119Z,31.73
2023-01-26T09:00:36.032Z,30.40
2023-01-26T09:03:04.846Z,29.45
2023-01-26T09:05:34.307Z,28.88
2023-01-26T09:08:01.326Z,32.03
2023-01-26T09:10:28.604Z,29.50
2023-01-26T09:12:57.062Z,29.23
2023-01-26T09:15:24.012Z,28.25
2023-01-26T09:17:51.267Z,28.77
2023-01-26T09:20:19.135Z,27.15
2023-01-26T09:22:46.380Z,26.27
2023-01-26T09:25:13.760Z,26.27
2023-01-26T09:27:40.944Z,26.17
2023-01-26T09:30:08.996Z,26.27
2023-01-26T09:32:35.897Z,25.60
2023-01-26T09:35:02.793Z,26.40
2023-01-26T09:37:29.730Z,27.83
2023-01-26T09:39:56.568Z,26.08
2023-01-26T09:42:45.818Z,25.88
2023-01-26T09:45:13.038Z,24.05
2023-01-26T09:48:11.344Z,24.75
2023-01-26T09:50:50.670Z,24.45
2023-01-26T09:53:30.001Z,22.55
2023-01-26T09:55:56.926Z,24.45
2023-01-26T09:58:40.175Z,23.50
2023-01-26T10:01:34.625Z,22.50
2023-01-26T10:04:11.340Z,22.48
2023-01-26T10:06:38.827Z,20.45
2023-01-26T10:09:29.776Z,21.35
2023-01-26T10:12:08.747Z,20.42
2023-01-26T10:15:24.125Z,18.00
2023-01-26T10:17:52.973Z,17.63
2023-01-26T10:20:34.039Z,18.63
2023-01-26T10:23:16.100Z,18.58
2023-01-26T10:25:47.312Z,15.73
2023-01-26T10:28:25.035Z,17.15
2023-01-26T10:30:52.874Z,16.83
2023-01-26T10:33:36.129Z,15.45
2023-01-26T10:36:06.598Z,15.65
2023-01-26T10:38:33.482Z,15.75
2023-01-26T10:41:02.174Z,14.30
2023-01-26T10:43:31.327Z,12.50
2023-01-26T10:45:58.299Z,13.27
2023-01-26T10:48:26.786Z,12.57
2023-01-26T10:50:54.751Z,10.77
2023-01-26T10:53:29.544Z,10.95
2023-01-26T10:56:07.283Z,9.25
2023-01-26T10:58:57.258Z,12.43
2023-01-26T11:01:27.610Z,6.90
2023-01-26T11:04:07.945Z,6.43
2023-01-26T11:06:35.442Z,5.85
2023-01-26T11:09:20.959Z,5.93
2023-01-26T11:12:02.325Z,5.63
2023-01-26T11:14:30.994Z,4.45
2023-01-26T11:17:04.954Z,4.00
2023-01-26T11:20:02.961Z,3.53
2023-01-26T11:23:08.831Z,4.72
2023-01-26T11:26:03.739Z,3.40
2023-01-26T11:28:42.643Z,3.58
2023-01-26T11:31:39.157Z,3.83
2023-01-26T11:34:28.623Z,3.97
2023-01-26T11:37:14.005Z,3.13
2023-01-26T11:40:20.302Z,3.53
2023-01-26T11:43:01.876Z,3.75
2023-01-26T11:45:51.759Z,3.63
2023-01-26T11:48:37.348Z,2.88
2023-01-26T11:51:09.322Z,4.38
2023-01-26T11:54:02.213Z,4.03
2023-01-26T11:56:41.420Z,3.08
2023-01-26T11:59:48.407Z,3.00
2023-01-26T12:02:28.462Z,4.45
2023-01-26T12:05:00.963Z,2.92
2023-01-26T12:07:51.482Z,2.65
2023-01-26T12:10:33.069Z,3.65
2023-01-26T12:13:46.022Z,2.53
2023-01-26T12:19:12.381Z,3.33
2023-01-26T12:21:44.113Z,3.45
2023-01-26T12:25:00.928Z,3.17
2023-01-26T12:27:31.155Z,2.30
2023-01-26T12:30:24.123Z,3.03
2023-01-26T12:32:52.185Z,2.85
2023-01-26T12:35:36.477Z,3.30
2023-01-26T12:38:23.151Z,2.70
2023-01-26T12:41:02.169Z,2.70
2023-01-26T12:43:47.666Z,3.10
2023-01-26T12:46:16.344Z,3.10
2023-01-26T12:48:57.999Z,2.13
2023-01-26T12:51:31.125Z,2.42
2023-01-26T12:54:05.699Z,2.78
2023-01-26T12:56:47.512Z,2.47
2023-01-26T12:59:46.845Z,2.90
2023-01-26T13:02:32.364Z,2.08
2023-01-26T13:05:01.511Z,2.30
2023-01-26T13:07:39.606Z,2.53
2023-01-26T13:10:20.423Z,2.10
2023-01-26T13:13:01.394Z,2.53
2023-01-26T13:15:31.122Z,2.95
2023-01-26T13:18:03.345Z,1.88
2023-01-26T13:20:43.150Z,1.90
2023-01-26T13:23:28.456Z,1.67
2023-01-26T13:26:20.250Z,1.83
2023-01-26T13:28:48.743Z,2.10
2023-01-26T13:31:34.060Z,2.20
2023-01-26T13:34:06.382Z,2.55
2023-01-26T13:39:22.838Z,1.88
2023-01-26T13:41:49.743Z,3.38
2023-01-26T13:45:04.297Z,2.22
2023-01-26T13:47:39.227Z,3.05
2023-01-26T13:50:42.480Z,2.38
2023-01-26T13:54:05.143Z,2.35
2023-01-26T13:56:38.961Z,2.40
2023-01-26T13:59:08.639Z,2.20
2023-01-26T14:01:42.644Z,2.58
2023-01-26T14:04:16.606Z,3.58
2023-01-26T14:07:09.936Z,2.42
2023-01-26T14:09:50.433Z,2.53
2023-01-26T14:12:25.147Z,2.70
2023-01-26T14:14:55.481Z,2.58
2023-01-26T14:17:30.779Z,1.75
2023-01-26T14:20:00.061Z,2.78
2023-01-26T14:22:27.617Z,2.63
2023-01-26T14:24:55.584Z,2.28
2023-01-26T14:27:34.447Z,2.10
2023-01-26T14:30:02.754Z,1.92
2023-01-26T14:32:30.816Z,2.00
2023-01-26T14:34:59.964Z,2.28
2023-01-26T14:37:28.499Z,2.17
2023-01-26T14:40:22.083Z,2.60
2023-01-26T14:42:51.403Z,2.35
2023-01-26T14:45:24.906Z,1.77
2023-01-26T14:47:53.628Z,2.28
2023-01-26T14:50:32.847Z,2.67
2023-01-26T14:53:02.041Z,3.75
2023-01-26T14:55:32.056Z,2.10
2023-01-26T14:58:00.957Z,2.10
2023-01-26T15:00:34.176Z,2.05
2023-01-26T15:03:06.052Z,2.38
2023-01-26T15:05:36.636Z,2.28
2023-01-26T15:08:19.994Z,1.60
2023-01-26T15:11:18.596Z,2.50
2023-01-26T15:13:47.537Z,2.67
2023-01-26T15:16:23.665Z,2.20
2023-01-26T15:19:06.740Z,2.22
2023-01-26T15:21:39.533Z,2.10
2023-01-26T15:24:12.208Z,2.75
2023-01-26T15:26:39.101Z,2.13
2023-01-26T15:29:18.112Z,1.88
2023-01-26T15:31:56.119Z,1.42
2023-01-26T15:34:36.929Z,1.77
2023-01-26T15:37:26.138Z,1.95
2023-01-26T15:39:53.035Z,2.08
2023-01-26T15:42:26.973Z,2.25
2023-01-26T15:44:53.888Z,2.17
2023-01-26T15:47:20.919Z,2.08
2023-01-26T15:49:47.836Z,1.92
2023-01-26T15:52:21.172Z,2.17
2023-01-26T15:54:48.077Z,2.53
2023-01-26T15:57:14.951Z,2.28
2023-01-26T15:59:41.875Z,2.38
2023-01-26T16:02:15.651Z,3.30
2023-01-26T16:04:42.839Z,1.95
2023-01-26T16:07:14.296Z,2.35
2023-01-26T16:09:41.869Z,1.90
2023-01-26T16:12:31.138Z,1.65
2023-01-26T16:14:59.104Z,1.80
2023-01-26T16:17:25.988Z,1.42
2023-01-26T16:19:52.908Z,1.80
2023-01-26T16:22:19.820Z,1.42
2023-01-26T16:24:47.175Z,1.20
2023-01-26T16:27:14.157Z,1.75
2023-01-26T16:29:41.067Z,1.30
2023-01-26T16:32:28.098Z,1.20
2023-01-26T16:34:55.088Z,1.70
2023-01-26T16:37:21.958Z,1.27
2023-01-26T16:39:48.852Z,1.52
2023-01-26T16:42:19.219Z,1.33
2023-01-26T16:44:46.981Z,2.40
2023-01-26T16:47:13.861Z,1.80
2023-01-26T16:49:40.792Z,1.30
2023-01-26T16:52:09.832Z,1.77
2023-01-26T16:54:36.946Z,1.55
2023-01-26T16:57:04.179Z,1.50
2023-01-26T16:59:31.053Z,1.35
2023-01-26T17:01:58.218Z,1.88
2023-01-26T17:04:25.119Z,2.78
2023-01-26T17:06:51.995Z,1.75
2023-01-26T17:09:20.556Z,2.22
2023-01-26T17:11:47.464Z,1.70
2023-01-26T17:14:14.380Z,1.67
2023-01-26T17:16:41.377Z,2.17
2023-01-26T17:19:09.380Z,2.15
2023-01-26T17:21:36.610Z,1.90
2023-01-26T17:24:03.861Z,1.90
2023-01-26T17:26:30.828Z,2.00
2023-01-26T17:28:57.797Z,1.90
2023-01-26T17:31:25.679Z,1.92
2023-01-26T17:33:54.703Z,2.22
2023-01-26T17:36:21.578Z,1.85
2023-01-26T17:38:49.217Z,2.50
2023-01-26T17:41:17.053Z,2.22
2023-01-26T17:43:44.471Z,2.25
2023-01-26T17:46:19.946Z,1.80
2023-01-26T17:48:48.136Z,2.80
2023-01-26T17:51:20.414Z,2.50
2023-01-26T17:56:18.976Z,1.75
2023-01-26T17:58:51.270Z,2.38
2023-01-26T18:03:45.610Z,3.13
2023-01-26T18:06:12.622Z,2.78
2023-01-26T18:08:40.441Z,3.13
2023-01-26T18:11:10.380Z,3.53
2023-01-26T18:13:37.532Z,2.40
2023-01-26T18:16:09.248Z,2.45
2023-01-26T18:18:36.662Z,3.10
2023-01-26T18:21:18.453Z,2.47
2023-01-26T18:23:53.877Z,3.92
2023-01-26T18:26:23.975Z,2.17
2023-01-26T18:28:51.194Z,2.90
2023-01-26T18:31:30.829Z,2.65
2023-01-26T18:33:59.800Z,2.65
2023-01-26T18:36:27.538Z,2.58
2023-01-26T18:38:57.821Z,3.03
2023-01-26T18:41:26.776Z,2.97
2023-01-26T18:43:55.601Z,2.20
2023-01-26T18:46:23.148Z,2.75
2023-01-26T18:48:53.423Z,2.28
2023-01-26T18:51:22.576Z,3.10
2023-01-26T18:53:49.549Z,2.20
2023-01-26T18:56:17.369Z,2.30
2023-01-26T18:58:44.317Z,3.47
2023-01-26T19:01:16.228Z,2.17
2023-01-26T19:03:47.514Z,3.03
2023-01-26T19:06:20.117Z,2.90
2023-01-26T19:08:59.320Z,2.28
2023-01-26T19:11:31.813Z,2.35
2023-01-26T19:13:59.135Z,2.78
2023-01-26T19:16:27.435Z,3.08
2023-01-26T19:18:55.463Z,3.17
2023-01-26T19:21:24.764Z,3.55
2023-01-26T19:23:53.967Z,2.30
2023-01-26T19:26:23.605Z,2.78
2023-01-26T19:28:51.047Z,2.97
2023-01-26T19:31:21.839Z,2.50
2023-01-26T19:34:13.192Z,2.50
2023-01-26T19:36:40.873Z,3.42
2023-01-26T19:39:07.870Z,4.18
2023-01-26T19:41:35.206Z,3.55
2023-01-26T19:44:02.225Z,3.95
2023-01-26T19:46:30.217Z,2.25
2023-01-26T19:48:57.158Z,3.03
2023-01-26T19:51:27.880Z,2.53
2023-01-26T19:53:57.800Z,4.35
2023-01-26T19:56:30.169Z,3.17
2023-01-26T20:01:25.775Z,2.88
2023-01-26T20:03:54.639Z,3.95
2023-01-26T20:06:24.068Z,2.55
2023-01-26T20:08:51.186Z,3.58
2023-01-26T20:11:19.844Z,2.60
2023-01-26T20:13:46.699Z,3.55
2023-01-26T20:16:13.916Z,3.70
2023-01-26T20:18:40.872Z,3.58
2023-01-26T20:21:07.798Z,2.88
2023-01-26T20:23:36.714Z,2.58
2023-01-26T20:26:10.097Z,2.60
2023-01-26T20:28:40.073Z,3.95
2023-01-26T20:31:11.510Z,2.95
2023-01-26T20:33:39.258Z,3.22
2023-01-26T20:36:08.437Z,2.88
2023-01-26T20:38:36.229Z,3.58
2023-01-26T20:41:12.155Z,3.45
2023-01-26T20:43:43.821Z,4.00
2023-01-26T20:46:20.137Z,3.55
2023-01-26T20:48:47.488Z,3.30
2023-01-26T20:51:17.050Z,3.33
2023-01-26T20:53:46.039Z,3.53
2023-01-26T20:56:14.132Z,3.92
2023-01-26T20:58:42.684Z,4.00
2023-01-26T21:01:12.188Z,2.63
2023-01-26T21:03:39.866Z,3.90
2023-01-26T21:06:08.887Z,3.38
2023-01-26T21:08:39.276Z,3.47
2023-01-26T21:11:08.416Z,3.67
2023-01-26T21:13:36.286Z,3.22
2023-01-26T21:16:08.823Z,3.05
2023-01-26T21:18:35.715Z,3.33
2023-01-26T21:21:07.025Z,3.85
2023-01-26T21:23:35.038Z,2.90
2023-01-26T21:26:08.259Z,3.10
2023-01-26T21:28:35.107Z,3.85
2023-01-26T21:31:09.378Z,3.88
2023-01-26T21:33:38.754Z,4.40
2023-01-26T21:36:07.094Z,5.63
2023-01-26T21:38:36.528Z,4.13
2023-01-26T21:41:33.353Z,3.95
2023-01-26T21:44:06.506Z,3.47
2023-01-26T21:46:33.992Z,4.15
2023-01-26T21:49:01.190Z,3.92
2023-01-26T21:51:47.463Z,3.45
2023-01-26T21:54:14.903Z,3.25
2023-01-26T21:56:42.268Z,3.58
2023-01-26T21:59:14.498Z,3.97
2023-01-26T22:04:30.329Z,4.53
2023-01-26T22:06:57.614Z,4.38
2023-01-26T22:09:24.860Z,3.97
2023-01-26T22:11:51.986Z,3.75
2023-01-26T22:14:21.751Z,4.10
2023-01-26T22:16:48.815Z,5.38
2023-01-26T22:19:15.960Z,5.90
2023-01-26T22:21:42.908Z,4.22
2023-01-26T22:24:12.056Z,3.75
2023-01-26T22:26:39.803Z,3.97
2023-01-26T22:29:07.289Z,4.38
2023-01-26T22:31:34.950Z,4.75
2023-01-26T22:34:02.237Z,4.28
2023-01-26T22:36:29.543Z,3.50
2023-01-26T22:38:58.952Z,2.67
2023-01-26T22:41:28.995Z,4.68
2023-01-26T22:43:58.748Z,3.35
2023-01-26T22:46:27.180Z,2.65
2023-01-26T22:48:57.303Z,2.70
2023-01-26T22:51:29.677Z,2.65
2023-01-26T22:53:58.003Z,2.55
2023-01-26T22:56:25.948Z,3.15
2023-01-26T22:58:59.112Z,2.20
2023-01-26T23:01:29.196Z,2.42
2023-01-26T23:03:57.204Z,2.63
2023-01-26T23:06:24.907Z,2.80
2023-01-26T23:08:51.804Z,2.33
2023-01-26T23:11:24.658Z,3.78
2023-01-26T23:13:53.435Z,2.75
2023-01-26T23:16:22.900Z,2.75
2023-01-26T23:18:50.955Z,2.78
2023-01-26T23:21:18.003Z,2.83
2023-01-26T23:23:44.830Z,2.20
2023-01-26T23:26:11.995Z,3.55
2023-01-26T23:28:41.399Z,2.83
2023-01-26T23:31:09.220Z,2.95
2023-01-26T23:33:37.108Z,3.20
2023-01-26T23:36:05.262Z,3.33
2023-01-26T23:38:32.490Z,3.78
2023-01-26T23:41:02.905Z,3.88
2023-01-26T23:43:29.849Z,3.67
2023-01-26T23:45:57.084Z,5.15
2023-01-26T23:48:24.985Z,3.72
2023-01-26T23:51:00.100Z,3.90
2023-01-26T23:53:28.284Z,3.70
2023-01-26T23:55:55.716Z,4.10
2023-01-26T23:58:22.700Z,4.60
